sensor_id;sensor_type;location;lat;lon;timestamp;P1;durP1;ratioP1;P2;durP2;ratioP2
54125;SDS011;40360;52.992;6.796;2022-08-04T00:05:28;17.25;;;8.77;;
54125;SDS011;40360;52.992;6.796;2022-08-04T00:10:54;18.77;;;8.85;;
54125;SDS011;40360;52.992;6.796;2022-08-04T00:13:27;16.15;;;8.45;;
54125;SDS011;40360;52.992;6.796;2022-08-04T00:15:56;16.08;;;7.63;;
54125;SDS011;40360;52.992;6.796;2022-08-04T00:18:26;17.95;;;8.82;;
54125;SDS011;40360;52.992;6.796;2022-08-04T00:20:58;15.73;;;7.63;;
54125;SDS011;40360;52.992;6.796;2022-08-04T00:23:28;11.43;;;7.13;;
54125;SDS011;40360;52.992;6.796;2022-08-04T00:25:57;21.30;;;8.68;;
54125;SDS011;40360;52.992;6.796;2022-08-04T00:28:24;17.25;;;8.73;;
54125;SDS011;40360;52.992;6.796;2022-08-04T00:30:50;12.10;;;7.40;;
54125;SDS011;40360;52.992;6.796;2022-08-04T00:33:19;15.02;;;8.88;;
54125;SDS011;40360;52.992;6.796;2022-08-04T00:35:46;14.48;;;7.47;;
54125;SDS011;40360;52.992;6.796;2022-08-04T00:38:17;19.73;;;8.30;;
54125;SDS011;40360;52.992;6.796;2022-08-04T00:40:55;14.35;;;7.60;;
54125;SDS011;40360;52.992;6.796;2022-08-04T00:49:20;15.05;;;8.38;;
54125;SDS011;40360;52.992;6.796;2022-08-04T00:55:02;15.93;;;8.00;;
54125;SDS011;40360;52.992;6.796;2022-08-04T01:11:18;24.10;;;9.20;;
54125;SDS011;40360;52.992;6.796;2022-08-04T01:16:24;14.20;;;8.20;;
54125;SDS011;40360;52.992;6.796;2022-08-04T01:18:54;18.20;;;8.20;;
54125;SDS011;40360;52.992;6.796;2022-08-04T01:29:29;13.30;;;8.45;;
54125;SDS011;40360;52.992;6.796;2022-08-04T01:32:03;19.15;;;9.02;;
54125;SDS011;40360;52.992;6.796;2022-08-04T01:34:36;21.13;;;9.20;;
54125;SDS011;40360;52.992;6.796;2022-08-04T01:37:10;19.13;;;9.25;;
54125;SDS011;40360;52.992;6.796;2022-08-04T01:40:02;16.02;;;8.20;;
54125;SDS011;40360;52.992;6.796;2022-08-04T01:42:31;20.67;;;9.68;;
54125;SDS011;40360;52.992;6.796;2022-08-04T01:45:02;15.27;;;8.80;;
54125;SDS011;40360;52.992;6.796;2022-08-04T01:47:30;17.95;;;8.18;;
54125;SDS011;40360;52.992;6.796;2022-08-04T01:50:02;16.83;;;10.07;;
54125;SDS011;40360;52.992;6.796;2022-08-04T01:52:36;17.08;;;8.70;;
54125;SDS011;40360;52.992;6.796;2022-08-04T01:55:05;16.52;;;9.02;;
54125;SDS011;40360;52.992;6.796;2022-08-04T01:57:48;16.33;;;8.65;;
54125;SDS011;40360;52.992;6.796;2022-08-04T02:00:23;16.92;;;7.80;;
54125;SDS011;40360;52.992;6.796;2022-08-04T02:02:51;15.50;;;8.82;;
54125;SDS011;40360;52.992;6.796;2022-08-04T02:05:19;16.05;;;8.10;;
54125;SDS011;40360;52.992;6.796;2022-08-04T02:07:58;16.48;;;8.63;;
54125;SDS011;40360;52.992;6.796;2022-08-04T02:13:10;16.75;;;8.68;;
54125;SDS011;40360;52.992;6.796;2022-08-04T02:16:04;14.85;;;8.75;;
54125;SDS011;40360;52.992;6.796;2022-08-04T02:18:49;18.42;;;8.15;;
54125;SDS011;40360;52.992;6.796;2022-08-04T02:21:26;15.85;;;8.20;;
54125;SDS011;40360;52.992;6.796;2022-08-04T02:23:55;16.58;;;9.02;;
54125;SDS011;40360;52.992;6.796;2022-08-04T02:26:27;11.38;;;7.28;;
54125;SDS011;40360;52.992;6.796;2022-08-04T02:31:26;12.48;;;7.30;;
54125;SDS011;40360;52.992;6.796;2022-08-04T02:36:40;17.25;;;8.80;;
54125;SDS011;40360;52.992;6.796;2022-08-04T02:44:00;18.30;;;8.27;;
54125;SDS011;40360;52.992;6.796;2022-08-04T02:46:28;16.45;;;8.65;;
54125;SDS011;40360;52.992;6.796;2022-08-04T02:48:55;13.07;;;7.50;;
54125;SDS011;40360;52.992;6.796;2022-08-04T02:51:28;13.05;;;8.48;;
54125;SDS011;40360;52.992;6.796;2022-08-04T02:53:56;20.60;;;10.18;;
54125;SDS011;40360;52.992;6.796;2022-08-04T02:56:23;18.50;;;8.90;;
54125;SDS011;40360;52.992;6.796;2022-08-04T02:58:58;16.83;;;9.43;;
54125;SDS011;40360;52.992;6.796;2022-08-04T03:01:25;17.10;;;9.38;;
54125;SDS011;40360;52.992;6.796;2022-08-04T03:06:52;11.57;;;9.00;;
54125;SDS011;40360;52.992;6.796;2022-08-04T03:12:05;15.45;;;8.10;;
54125;SDS011;40360;52.992;6.796;2022-08-04T03:17:44;12.63;;;7.80;;
54125;SDS011;40360;52.992;6.796;2022-08-04T03:20:50;11.95;;;8.45;;
54125;SDS011;40360;52.992;6.796;2022-08-04T03:29:32;16.25;;;9.98;;
54125;SDS011;40360;52.992;6.796;2022-08-04T03:35:29;14.13;;;11.13;;
54125;SDS011;40360;52.992;6.796;2022-08-04T03:38:29;15.52;;;9.70;;
54125;SDS011;40360;52.992;6.796;2022-08-04T03:41:34;15.02;;;10.02;;
54125;SDS011;40360;52.992;6.796;2022-08-04T03:44:28;12.40;;;8.05;;
54125;SDS011;40360;52.992;6.796;2022-08-04T03:47:21;14.82;;;8.55;;
54125;SDS011;40360;52.992;6.796;2022-08-04T03:59:07;10.07;;;7.55;;
54125;SDS011;40360;52.992;6.796;2022-08-04T04:01:42;9.52;;;7.13;;
54125;SDS011;40360;52.992;6.796;2022-08-04T04:06:53;13.75;;;8.23;;
54125;SDS011;40360;52.992;6.796;2022-08-04T04:28:47;11.48;;;7.53;;
54125;SDS011;40360;52.992;6.796;2022-08-04T04:34:04;14.52;;;6.70;;
54125;SDS011;40360;52.992;6.796;2022-08-04T04:39:34;12.35;;;7.93;;
54125;SDS011;40360;52.992;6.796;2022-08-04T04:42:28;12.05;;;8.18;;
54125;SDS011;40360;52.992;6.796;2022-08-04T04:45:11;14.57;;;8.80;;
54125;SDS011;40360;52.992;6.796;2022-08-04T04:53:41;14.00;;;8.77;;
54125;SDS011;40360;52.992;6.796;2022-08-04T04:59:05;12.73;;;8.30;;
54125;SDS011;40360;52.992;6.796;2022-08-04T05:21:19;18.92;;;12.15;;
54125;SDS011;40360;52.992;6.796;2022-08-04T05:23:55;20.48;;;12.60;;
54125;SDS011;40360;52.992;6.796;2022-08-04T05:26:29;18.27;;;13.40;;
54125;SDS011;40360;52.992;6.796;2022-08-04T05:29:00;41.65;;;13.65;;
54125;SDS011;40360;52.992;6.796;2022-08-04T05:31:39;17.30;;;11.52;;
54125;SDS011;40360;52.992;6.796;2022-08-04T05:34:13;15.98;;;11.93;;
54125;SDS011;40360;52.992;6.796;2022-08-04T05:36:45;21.02;;;12.35;;
54125;SDS011;40360;52.992;6.796;2022-08-04T05:39:14;17.30;;;12.05;;
54125;SDS011;40360;52.992;6.796;2022-08-04T05:41:43;16.67;;;10.88;;
54125;SDS011;40360;52.992;6.796;2022-08-04T05:44:09;23.55;;;11.68;;
54125;SDS011;40360;52.992;6.796;2022-08-04T05:46:36;17.67;;;12.27;;
54125;SDS011;40360;52.992;6.796;2022-08-04T05:49:02;19.20;;;10.07;;
54125;SDS011;40360;52.992;6.796;2022-08-04T05:51:28;15.88;;;10.10;;
54125;SDS011;40360;52.992;6.796;2022-08-04T05:53:55;19.48;;;10.13;;
54125;SDS011;40360;52.992;6.796;2022-08-04T05:56:22;14.60;;;9.82;;
54125;SDS011;40360;52.992;6.796;2022-08-04T05:58:48;14.60;;;8.98;;
54125;SDS011;40360;52.992;6.796;2022-08-04T06:01:16;20.50;;;8.93;;
54125;SDS011;40360;52.992;6.796;2022-08-04T06:03:44;11.20;;;7.38;;
54125;SDS011;40360;52.992;6.796;2022-08-04T06:06:11;13.07;;;8.13;;
54125;SDS011;40360;52.992;6.796;2022-08-04T06:08:39;15.60;;;8.38;;
54125;SDS011;40360;52.992;6.796;2022-08-04T06:11:06;12.40;;;7.78;;
54125;SDS011;40360;52.992;6.796;2022-08-04T06:13:36;13.82;;;8.57;;
54125;SDS011;40360;52.992;6.796;2022-08-04T06:16:06;13.07;;;7.93;;
54125;SDS011;40360;52.992;6.796;2022-08-04T06:18:34;14.65;;;8.00;;
54125;SDS011;40360;52.992;6.796;2022-08-04T06:21:03;16.13;;;8.25;;
54125;SDS011;40360;52.992;6.796;2022-08-04T06:23:31;12.07;;;7.55;;
54125;SDS011;40360;52.992;6.796;2022-08-04T06:26:01;14.05;;;7.57;;
54125;SDS011;40360;52.992;6.796;2022-08-04T06:28:27;14.60;;;7.65;;
54125;SDS011;40360;52.992;6.796;2022-08-04T06:30:55;14.73;;;7.13;;
54125;SDS011;40360;52.992;6.796;2022-08-04T06:33:28;13.50;;;6.57;;
54125;SDS011;40360;52.992;6.796;2022-08-04T06:35:59;10.13;;;7.10;;
54125;SDS011;40360;52.992;6.796;2022-08-04T06:38:27;13.45;;;6.28;;
54125;SDS011;40360;52.992;6.796;2022-08-04T06:40:54;11.93;;;6.63;;
54125;SDS011;40360;52.992;6.796;2022-08-04T06:43:22;15.13;;;6.65;;
54125;SDS011;40360;52.992;6.796;2022-08-04T06:45:49;10.48;;;6.40;;
54125;SDS011;40360;52.992;6.796;2022-08-04T06:48:16;14.15;;;6.60;;
54125;SDS011;40360;52.992;6.796;2022-08-04T06:50:47;8.95;;;5.68;;
54125;SDS011;40360;52.992;6.796;2022-08-04T06:53:14;10.52;;;6.57;;
54125;SDS011;40360;52.992;6.796;2022-08-04T06:55:45;10.63;;;5.35;;
54125;SDS011;40360;52.992;6.796;2022-08-04T06:58:11;10.43;;;6.00;;
54125;SDS011;40360;52.992;6.796;2022-08-04T07:00:38;11.02;;;6.25;;
54125;SDS011;40360;52.992;6.796;2022-08-04T07:03:06;11.20;;;5.50;;
54125;SDS011;40360;52.992;6.796;2022-08-04T07:05:32;11.07;;;5.70;;
54125;SDS011;40360;52.992;6.796;2022-08-04T07:07:58;9.05;;;5.47;;
54125;SDS011;40360;52.992;6.796;2022-08-04T07:10:28;8.23;;;5.43;;
54125;SDS011;40360;52.992;6.796;2022-08-04T07:12:58;8.30;;;5.75;;
54125;SDS011;40360;52.992;6.796;2022-08-04T07:15:25;10.43;;;5.03;;
54125;SDS011;40360;52.992;6.796;2022-08-04T07:17:53;8.00;;;4.88;;
54125;SDS011;40360;52.992;6.796;2022-08-04T07:20:23;14.10;;;5.03;;
54125;SDS011;40360;52.992;6.796;2022-08-04T07:22:50;7.57;;;5.13;;
54125;SDS011;40360;52.992;6.796;2022-08-04T07:25:15;8.68;;;4.72;;
54125;SDS011;40360;52.992;6.796;2022-08-04T07:27:42;8.93;;;4.68;;
54125;SDS011;40360;52.992;6.796;2022-08-04T07:30:08;14.30;;;5.38;;
54125;SDS011;40360;52.992;6.796;2022-08-04T07:32:36;14.57;;;5.25;;
54125;SDS011;40360;52.992;6.796;2022-08-04T07:35:06;12.05;;;5.53;;
54125;SDS011;40360;52.992;6.796;2022-08-04T07:37:32;9.10;;;4.82;;
54125;SDS011;40360;52.992;6.796;2022-08-04T07:39:59;11.07;;;4.78;;
54125;SDS011;40360;52.992;6.796;2022-08-04T07:42:25;11.48;;;5.53;;
54125;SDS011;40360;52.992;6.796;2022-08-04T07:44:51;12.75;;;5.43;;
54125;SDS011;40360;52.992;6.796;2022-08-04T07:47:17;13.15;;;5.28;;
54125;SDS011;40360;52.992;6.796;2022-08-04T07:49:43;9.40;;;4.72;;
54125;SDS011;40360;52.992;6.796;2022-08-04T07:52:09;9.38;;;4.82;;
54125;SDS011;40360;52.992;6.796;2022-08-04T07:54:35;12.70;;;4.32;;
54125;SDS011;40360;52.992;6.796;2022-08-04T07:57:03;11.30;;;4.50;;
54125;SDS011;40360;52.992;6.796;2022-08-04T07:59:31;12.57;;;4.53;;
54125;SDS011;40360;52.992;6.796;2022-08-04T08:02:00;11.88;;;4.20;;
54125;SDS011;40360;52.992;6.796;2022-08-04T08:04:27;9.77;;;3.92;;
54125;SDS011;40360;52.992;6.796;2022-08-04T08:06:54;12.07;;;4.40;;
54125;SDS011;40360;52.992;6.796;2022-08-04T08:09:21;9.80;;;4.55;;
54125;SDS011;40360;52.992;6.796;2022-08-04T08:11:52;7.55;;;3.58;;
54125;SDS011;40360;52.992;6.796;2022-08-04T08:14:19;6.88;;;2.92;;
54125;SDS011;40360;52.992;6.796;2022-08-04T08:16:46;9.48;;;3.72;;
54125;SDS011;40360;52.992;6.796;2022-08-04T08:19:13;9.88;;;3.85;;
54125;SDS011;40360;52.992;6.796;2022-08-04T08:21:39;6.47;;;3.30;;
54125;SDS011;40360;52.992;6.796;2022-08-04T08:24:05;9.07;;;4.07;;
54125;SDS011;40360;52.992;6.796;2022-08-04T08:26:31;5.32;;;3.33;;
54125;SDS011;40360;52.992;6.796;2022-08-04T08:28:57;9.02;;;4.00;;
54125;SDS011;40360;52.992;6.796;2022-08-04T08:31:23;11.65;;;3.92;;
54125;SDS011;40360;52.992;6.796;2022-08-04T08:33:49;10.80;;;3.40;;
54125;SDS011;40360;52.992;6.796;2022-08-04T08:38:52;7.78;;;2.97;;
54125;SDS011;40360;52.992;6.796;2022-08-04T08:44:33;7.55;;;3.38;;
54125;SDS011;40360;52.992;6.796;2022-08-04T08:50:02;7.63;;;3.42;;
54125;SDS011;40360;52.992;6.796;2022-08-04T08:52:53;8.02;;;3.03;;
54125;SDS011;40360;52.992;6.796;2022-08-04T08:58:21;10.07;;;2.80;;
54125;SDS011;40360;52.992;6.796;2022-08-04T09:01:04;6.97;;;3.70;;
54125;SDS011;40360;52.992;6.796;2022-08-04T09:06:31;9.45;;;3.33;;
54125;SDS011;40360;52.992;6.796;2022-08-04T09:12:00;7.13;;;2.85;;
54125;SDS011;40360;52.992;6.796;2022-08-04T09:14:47;8.73;;;3.13;;
54125;SDS011;40360;52.992;6.796;2022-08-04T09:17:21;10.13;;;3.33;;
54125;SDS011;40360;52.992;6.796;2022-08-04T09:20:05;7.43;;;3.20;;
54125;SDS011;40360;52.992;6.796;2022-08-04T09:22:42;8.38;;;3.97;;
54125;SDS011;40360;52.992;6.796;2022-08-04T09:25:20;8.45;;;2.95;;
54125;SDS011;40360;52.992;6.796;2022-08-04T09:27:57;8.80;;;2.67;;
54125;SDS011;40360;52.992;6.796;2022-08-04T09:30:37;6.03;;;3.25;;
54125;SDS011;40360;52.992;6.796;2022-08-04T09:33:24;5.60;;;3.25;;
54125;SDS011;40360;52.992;6.796;2022-08-04T09:35:54;7.00;;;3.28;;
54125;SDS011;40360;52.992;6.796;2022-08-04T09:39:09;12.95;;;3.42;;
54125;SDS011;40360;52.992;6.796;2022-08-04T09:44:39;8.25;;;2.80;;
54125;SDS011;40360;52.992;6.796;2022-08-04T09:47:23;8.23;;;3.30;;
54125;SDS011;40360;52.992;6.796;2022-08-04T09:55:49;8.00;;;3.13;;
54125;SDS011;40360;52.992;6.796;2022-08-04T10:01:20;10.73;;;3.53;;
54125;SDS011;40360;52.992;6.796;2022-08-04T10:03:49;6.28;;;3.13;;
54125;SDS011;40360;52.992;6.796;2022-08-04T10:11:46;7.50;;;3.40;;
54125;SDS011;40360;52.992;6.796;2022-08-04T10:19:39;7.05;;;3.70;;
54125;SDS011;40360;52.992;6.796;2022-08-04T10:22:20;7.38;;;3.33;;
54125;SDS011;40360;52.992;6.796;2022-08-04T10:27:47;9.25;;;4.30;;
54125;SDS011;40360;52.992;6.796;2022-08-04T10:30:17;11.57;;;3.92;;
54125;SDS011;40360;52.992;6.796;2022-08-04T10:32:49;8.70;;;3.50;;
54125;SDS011;40360;52.992;6.796;2022-08-04T10:35:34;11.38;;;4.70;;
54125;SDS011;40360;52.992;6.796;2022-08-04T10:40:35;8.90;;;3.67;;
54125;SDS011;40360;52.992;6.796;2022-08-04T10:46:14;9.40;;;3.83;;
54125;SDS011;40360;52.992;6.796;2022-08-04T10:48:46;8.00;;;4.65;;
54125;SDS011;40360;52.992;6.796;2022-08-04T10:54:40;7.65;;;4.07;;
54125;SDS011;40360;52.992;6.796;2022-08-04T10:59:57;9.43;;;3.55;;
54125;SDS011;40360;52.992;6.796;2022-08-04T11:05:29;6.53;;;3.17;;
54125;SDS011;40360;52.992;6.796;2022-08-04T11:08:24;8.43;;;3.22;;
54125;SDS011;40360;52.992;6.796;2022-08-04T11:11:00;9.23;;;3.42;;
54125;SDS011;40360;52.992;6.796;2022-08-04T11:13:45;5.13;;;2.85;;
54125;SDS011;40360;52.992;6.796;2022-08-04T11:16:16;6.93;;;3.10;;
54125;SDS011;40360;52.992;6.796;2022-08-04T11:18:48;8.13;;;2.63;;
54125;SDS011;40360;52.992;6.796;2022-08-04T11:21:38;8.15;;;2.60;;
54125;SDS011;40360;52.992;6.796;2022-08-04T11:24:20;5.32;;;2.28;;
54125;SDS011;40360;52.992;6.796;2022-08-04T11:26:53;7.82;;;2.70;;
54125;SDS011;40360;52.992;6.796;2022-08-04T11:29:28;9.73;;;2.42;;
54125;SDS011;40360;52.992;6.796;2022-08-04T11:32:07;6.50;;;2.58;;
54125;SDS011;40360;52.992;6.796;2022-08-04T11:34:43;7.68;;;2.83;;
54125;SDS011;40360;52.992;6.796;2022-08-04T11:37:22;8.27;;;2.50;;
54125;SDS011;40360;52.992;6.796;2022-08-04T11:42:41;7.80;;;2.30;;
54125;SDS011;40360;52.992;6.796;2022-08-04T11:45:17;6.38;;;2.40;;
54125;SDS011;40360;52.992;6.796;2022-08-04T11:48:02;3.97;;;2.17;;
54125;SDS011;40360;52.992;6.796;2022-08-04T11:50:38;6.75;;;2.20;;
54125;SDS011;40360;52.992;6.796;2022-08-04T11:53:13;4.97;;;1.75;;
54125;SDS011;40360;52.992;6.796;2022-08-04T11:55:43;6.53;;;2.30;;
54125;SDS011;40360;52.992;6.796;2022-08-04T11:58:12;6.07;;;2.30;;
54125;SDS011;40360;52.992;6.796;2022-08-04T12:00:40;5.55;;;2.40;;
54125;SDS011;40360;52.992;6.796;2022-08-04T12:03:23;10.23;;;2.63;;
54125;SDS011;40360;52.992;6.796;2022-08-04T12:06:14;5.07;;;2.10;;
54125;SDS011;40360;52.992;6.796;2022-08-04T12:14:24;10.43;;;2.58;;
54125;SDS011;40360;52.992;6.796;2022-08-04T12:16:57;5.05;;;2.42;;
54125;SDS011;40360;52.992;6.796;2022-08-04T12:19:43;5.93;;;2.45;;
54125;SDS011;40360;52.992;6.796;2022-08-04T12:22:16;5.50;;;2.33;;
54125;SDS011;40360;52.992;6.796;2022-08-04T12:25:13;7.07;;;2.20;;
54125;SDS011;40360;52.992;6.796;2022-08-04T12:28:04;4.75;;;2.10;;
54125;SDS011;40360;52.992;6.796;2022-08-04T12:30:36;6.15;;;2.40;;
54125;SDS011;40360;52.992;6.796;2022-08-04T12:33:19;5.50;;;1.85;;
54125;SDS011;40360;52.992;6.796;2022-08-04T12:39:02;4.03;;;2.00;;
54125;SDS011;40360;52.992;6.796;2022-08-04T12:42:10;5.55;;;1.98;;
54125;SDS011;40360;52.992;6.796;2022-08-04T12:44:36;5.88;;;2.03;;
54125;SDS011;40360;52.992;6.796;2022-08-04T12:49:33;3.17;;;1.73;;
54125;SDS011;40360;52.992;6.796;2022-08-04T12:52:00;3.38;;;1.63;;
54125;SDS011;40360;52.992;6.796;2022-08-04T12:54:30;2.97;;;1.52;;
54125;SDS011;40360;52.992;6.796;2022-08-04T12:56:58;4.75;;;1.95;;
54125;SDS011;40360;52.992;6.796;2022-08-04T12:59:25;2.70;;;1.30;;
54125;SDS011;40360;52.992;6.796;2022-08-04T13:01:51;2.03;;;1.33;;
54125;SDS011;40360;52.992;6.796;2022-08-04T13:04:19;4.03;;;1.80;;
54125;SDS011;40360;52.992;6.796;2022-08-04T13:07:00;2.42;;;1.60;;
54125;SDS011;40360;52.992;6.796;2022-08-04T13:09:32;4.57;;;1.90;;
54125;SDS011;40360;52.992;6.796;2022-08-04T13:12:02;2.95;;;1.40;;
54125;SDS011;40360;52.992;6.796;2022-08-04T13:14:34;4.43;;;1.77;;
54125;SDS011;40360;52.992;6.796;2022-08-04T13:17:02;2.63;;;1.58;;
54125;SDS011;40360;52.992;6.796;2022-08-04T13:19:29;3.00;;;1.50;;
54125;SDS011;40360;52.992;6.796;2022-08-04T13:21:55;5.43;;;1.58;;
54125;SDS011;40360;52.992;6.796;2022-08-04T13:24:23;2.40;;;1.33;;
54125;SDS011;40360;52.992;6.796;2022-08-04T13:29:30;4.22;;;1.67;;
54125;SDS011;40360;52.992;6.796;2022-08-04T13:32:02;4.43;;;1.75;;
54125;SDS011;40360;52.992;6.796;2022-08-04T13:34:29;4.47;;;1.70;;
54125;SDS011;40360;52.992;6.796;2022-08-04T13:36:57;3.60;;;1.50;;
54125;SDS011;40360;52.992;6.796;2022-08-04T13:39:23;4.47;;;1.80;;
54125;SDS011;40360;52.992;6.796;2022-08-04T13:41:51;3.47;;;1.50;;
54125;SDS011;40360;52.992;6.796;2022-08-04T13:44:20;3.95;;;1.65;;
54125;SDS011;40360;52.992;6.796;2022-08-04T13:46:51;2.75;;;1.40;;
54125;SDS011;40360;52.992;6.796;2022-08-04T13:49:19;2.40;;;1.67;;
54125;SDS011;40360;52.992;6.796;2022-08-04T13:51:50;3.92;;;1.50;;
54125;SDS011;40360;52.992;6.796;2022-08-04T13:54:19;4.07;;;1.58;;
54125;SDS011;40360;52.992;6.796;2022-08-04T13:56:46;3.97;;;1.73;;
54125;SDS011;40360;52.992;6.796;2022-08-04T13:59:15;4.10;;;1.52;;
54125;SDS011;40360;52.992;6.796;2022-08-04T14:01:43;2.60;;;1.60;;
54125;SDS011;40360;52.992;6.796;2022-08-04T14:04:12;2.65;;;1.58;;
54125;SDS011;40360;52.992;6.796;2022-08-04T14:06:50;3.30;;;1.63;;
54125;SDS011;40360;52.992;6.796;2022-08-04T14:09:23;3.80;;;1.63;;
54125;SDS011;40360;52.992;6.796;2022-08-04T14:11:54;4.55;;;1.58;;
54125;SDS011;40360;52.992;6.796;2022-08-04T14:14:28;4.75;;;1.30;;
54125;SDS011;40360;52.992;6.796;2022-08-04T14:17:00;6.50;;;1.90;;
54125;SDS011;40360;52.992;6.796;2022-08-04T14:27:45;3.53;;;1.40;;
54125;SDS011;40360;52.992;6.796;2022-08-04T14:30:28;2.85;;;1.42;;
54125;SDS011;40360;52.992;6.796;2022-08-04T14:32:55;2.20;;;1.38;;
54125;SDS011;40360;52.992;6.796;2022-08-04T14:35:21;5.10;;;2.20;;
54125;SDS011;40360;52.992;6.796;2022-08-04T14:40:45;3.40;;;1.50;;
54125;SDS011;40360;52.992;6.796;2022-08-04T14:43:13;4.78;;;1.60;;
54125;SDS011;40360;52.992;6.796;2022-08-04T14:45:42;4.55;;;1.50;;
54125;SDS011;40360;52.992;6.796;2022-08-04T14:48:17;3.03;;;1.65;;
54125;SDS011;40360;52.992;6.796;2022-08-04T14:50:43;3.67;;;1.58;;
54125;SDS011;40360;52.992;6.796;2022-08-04T14:53:15;3.30;;;1.80;;
54125;SDS011;40360;52.992;6.796;2022-08-04T14:58:15;5.72;;;1.58;;
54125;SDS011;40360;52.992;6.796;2022-08-04T15:00:43;3.03;;;1.35;;
54125;SDS011;40360;52.992;6.796;2022-08-04T15:03:09;2.97;;;1.55;;
54125;SDS011;40360;52.992;6.796;2022-08-04T15:05:39;2.55;;;1.33;;
54125;SDS011;40360;52.992;6.796;2022-08-04T15:08:06;6.15;;;1.15;;
54125;SDS011;40360;52.992;6.796;2022-08-04T15:10:32;2.08;;;1.20;;
54125;SDS011;40360;52.992;6.796;2022-08-04T15:12:58;3.97;;;2.25;;
54125;SDS011;40360;52.992;6.796;2022-08-04T15:15:26;3.20;;;1.65;;
54125;SDS011;40360;52.992;6.796;2022-08-04T15:17:53;3.55;;;1.20;;
54125;SDS011;40360;52.992;6.796;2022-08-04T15:20:19;3.70;;;1.27;;
54125;SDS011;40360;52.992;6.796;2022-08-04T15:22:45;4.72;;;1.52;;
54125;SDS011;40360;52.992;6.796;2022-08-04T15:25:11;3.55;;;1.30;;
54125;SDS011;40360;52.992;6.796;2022-08-04T15:27:38;4.45;;;1.77;;
54125;SDS011;40360;52.992;6.796;2022-08-04T15:30:09;4.80;;;1.88;;
54125;SDS011;40360;52.992;6.796;2022-08-04T15:32:47;2.13;;;1.20;;
54125;SDS011;40360;52.992;6.796;2022-08-04T15:35:20;3.25;;;1.40;;
54125;SDS011;40360;52.992;6.796;2022-08-04T15:46:11;5.85;;;1.90;;
54125;SDS011;40360;52.992;6.796;2022-08-04T15:48:37;4.10;;;1.73;;
54125;SDS011;40360;52.992;6.796;2022-08-04T15:51:07;6.70;;;2.30;;
54125;SDS011;40360;52.992;6.796;2022-08-04T15:54:19;4.45;;;2.03;;
54125;SDS011;40360;52.992;6.796;2022-08-04T15:56:43;6.07;;;2.15;;
54125;SDS011;40360;52.992;6.796;2022-08-04T15:59:10;6.72;;;2.55;;
54125;SDS011;40360;52.992;6.796;2022-08-04T16:01:35;8.13;;;2.65;;
54125;SDS011;40360;52.992;6.796;2022-08-04T16:04:19;5.53;;;2.17;;
54125;SDS011;40360;52.992;6.796;2022-08-04T16:06:49;8.88;;;2.28;;
54125;SDS011;40360;52.992;6.796;2022-08-04T16:09:22;5.78;;;2.15;;
54125;SDS011;40360;52.992;6.796;2022-08-04T16:11:49;8.55;;;2.25;;
54125;SDS011;40360;52.992;6.796;2022-08-04T16:14:15;7.25;;;1.92;;
54125;SDS011;40360;52.992;6.796;2022-08-04T16:19:31;5.32;;;2.15;;
54125;SDS011;40360;52.992;6.796;2022-08-04T16:22:03;5.25;;;2.10;;
54125;SDS011;40360;52.992;6.796;2022-08-04T16:24:37;3.55;;;1.50;;
54125;SDS011;40360;52.992;6.796;2022-08-04T16:27:04;3.42;;;1.40;;
54125;SDS011;40360;52.992;6.796;2022-08-04T16:29:32;2.70;;;1.30;;
54125;SDS011;40360;52.992;6.796;2022-08-04T16:34:29;3.95;;;1.50;;
54125;SDS011;40360;52.992;6.796;2022-08-04T16:36:59;5.47;;;1.60;;
54125;SDS011;40360;52.992;6.796;2022-08-04T16:39:25;4.32;;;2.13;;
54125;SDS011;40360;52.992;6.796;2022-08-04T16:41:51;4.10;;;1.85;;
54125;SDS011;40360;52.992;6.796;2022-08-04T16:44:35;5.50;;;1.73;;
54125;SDS011;40360;52.992;6.796;2022-08-04T16:47:05;2.03;;;1.15;;
54125;SDS011;40360;52.992;6.796;2022-08-04T16:49:31;9.30;;;1.50;;
54125;SDS011;40360;52.992;6.796;2022-08-04T16:52:04;5.47;;;1.70;;
54125;SDS011;40360;52.992;6.796;2022-08-04T16:54:32;3.95;;;1.25;;
54125;SDS011;40360;52.992;6.796;2022-08-04T16:57:00;5.38;;;0.88;;
54125;SDS011;40360;52.992;6.796;2022-08-04T16:59:32;6.20;;;1.20;;
54125;SDS011;40360;52.992;6.796;2022-08-04T17:01:59;2.47;;;1.05;;
54125;SDS011;40360;52.992;6.796;2022-08-04T17:04:29;2.65;;;1.00;;
54125;SDS011;40360;52.992;6.796;2022-08-04T17:07:03;2.95;;;1.30;;
54125;SDS011;40360;52.992;6.796;2022-08-04T17:09:30;2.92;;;1.10;;
54125;SDS011;40360;52.992;6.796;2022-08-04T17:11:57;2.22;;;1.20;;
54125;SDS011;40360;52.992;6.796;2022-08-04T17:14:27;3.83;;;1.83;;
54125;SDS011;40360;52.992;6.796;2022-08-04T17:16:55;5.05;;;1.58;;
54125;SDS011;40360;52.992;6.796;2022-08-04T17:19:22;9.98;;;2.08;;
54125;SDS011;40360;52.992;6.796;2022-08-04T17:21:49;5.90;;;2.28;;
54125;SDS011;40360;52.992;6.796;2022-08-04T17:24:18;3.90;;;1.85;;
54125;SDS011;40360;52.992;6.796;2022-08-04T17:26:45;10.20;;;3.28;;
54125;SDS011;40360;52.992;6.796;2022-08-04T17:29:11;3.65;;;1.70;;
54125;SDS011;40360;52.992;6.796;2022-08-04T17:31:37;5.13;;;1.70;;
54125;SDS011;40360;52.992;6.796;2022-08-04T17:34:08;5.43;;;2.45;;
54125;SDS011;40360;52.992;6.796;2022-08-04T17:36:35;8.43;;;2.53;;
54125;SDS011;40360;52.992;6.796;2022-08-04T17:39:09;4.03;;;2.08;;
54125;SDS011;40360;52.992;6.796;2022-08-04T17:41:39;8.10;;;2.83;;
54125;SDS011;40360;52.992;6.796;2022-08-04T17:44:05;8.13;;;2.22;;
54125;SDS011;40360;52.992;6.796;2022-08-04T17:49:18;4.95;;;2.65;;
54125;SDS011;40360;52.992;6.796;2022-08-04T17:51:49;2.70;;;2.20;;
54125;SDS011;40360;52.992;6.796;2022-08-04T17:56:50;6.60;;;2.30;;
54125;SDS011;40360;52.992;6.796;2022-08-04T18:07:02;5.28;;;2.33;;
54125;SDS011;40360;52.992;6.796;2022-08-04T18:09:33;3.20;;;1.83;;
54125;SDS011;40360;52.992;6.796;2022-08-04T18:12:05;11.48;;;3.03;;
54125;SDS011;40360;52.992;6.796;2022-08-04T18:14:37;4.85;;;1.98;;
54125;SDS011;40360;52.992;6.796;2022-08-04T18:17:10;2.78;;;1.85;;
54125;SDS011;40360;52.992;6.796;2022-08-04T18:19:38;4.38;;;2.25;;
54125;SDS011;40360;52.992;6.796;2022-08-04T18:22:15;5.03;;;2.30;;
54125;SDS011;40360;52.992;6.796;2022-08-04T18:24:41;9.35;;;2.30;;
54125;SDS011;40360;52.992;6.796;2022-08-04T18:27:06;5.82;;;2.50;;
54125;SDS011;40360;52.992;6.796;2022-08-04T18:29:32;4.57;;;2.60;;
54125;SDS011;40360;52.992;6.796;2022-08-04T18:31:58;6.13;;;2.28;;
54125;SDS011;40360;52.992;6.796;2022-08-04T18:34:24;5.40;;;2.30;;
54125;SDS011;40360;52.992;6.796;2022-08-04T18:36:50;3.13;;;2.22;;
54125;SDS011;40360;52.992;6.796;2022-08-04T18:39:15;11.93;;;2.85;;
54125;SDS011;40360;52.992;6.796;2022-08-04T18:41:42;5.22;;;2.15;;
54125;SDS011;40360;52.992;6.796;2022-08-04T18:44:08;5.60;;;2.50;;
54125;SDS011;40360;52.992;6.796;2022-08-04T18:46:34;6.07;;;2.60;;
54125;SDS011;40360;52.992;6.796;2022-08-04T18:49:00;5.30;;;2.92;;
54125;SDS011;40360;52.992;6.796;2022-08-04T18:51:25;5.07;;;2.30;;
54125;SDS011;40360;52.992;6.796;2022-08-04T18:53:51;4.40;;;2.50;;
54125;SDS011;40360;52.992;6.796;2022-08-04T18:56:17;4.22;;;2.28;;
54125;SDS011;40360;52.992;6.796;2022-08-04T18:58:43;4.95;;;2.38;;
54125;SDS011;40360;52.992;6.796;2022-08-04T19:01:09;5.75;;;2.35;;
54125;SDS011;40360;52.992;6.796;2022-08-04T19:03:36;5.53;;;2.40;;
54125;SDS011;40360;52.992;6.796;2022-08-04T19:06:02;6.07;;;2.58;;
54125;SDS011;40360;52.992;6.796;2022-08-04T19:08:28;7.95;;;2.10;;
54125;SDS011;40360;52.992;6.796;2022-08-04T19:10:54;5.85;;;2.92;;
54125;SDS011;40360;52.992;6.796;2022-08-04T19:13:20;8.07;;;2.70;;
54125;SDS011;40360;52.992;6.796;2022-08-04T19:15:46;4.90;;;2.38;;
54125;SDS011;40360;52.992;6.796;2022-08-04T19:18:12;5.53;;;2.65;;
54125;SDS011;40360;52.992;6.796;2022-08-04T19:20:37;5.55;;;2.30;;